Terminal Aerodrome Forecast
Issued by NWS

Home | Current Version | Previous Version | Text Only | Print | Product List | Glossary On
Versions: 1 2 3 4 5 6 7 8 9 10 11 12 13 14 15 16 17 18 19 20 21 22 23 24 25 26 27 28 29 30 31 32 33 34 35 36 37 38 39 40
000
FTUS43 KDTX 241729
TAFPTK
TAF
KPTK 241729Z 2418/2518 16013KT 5SM BR SCT006 BKN012
     FM241930 19013G20KT P6SM BKN035
     FM250000 18012G18KT 4SM SHRA SCT010 OVC020
      TEMPO 2501/2504 2SM TSRA OVC008CB
     FM250600 25014G24KT P6SM SCT010 BKN080
     FM251100 25013G26KT P6SM -SHSN SCT008 OVC018
     FM251400 25014G28KT P6SM -SHSN SCT018 OVC028=

USA.gov is the U.S. government's official web portal to all federal, state and local government web resources and services.